Aviation Digital Data Service (ADDS)

Output produced by METARs form (0217 UTC 30 March 2015)
found at http://aviationweather.gov/adds/metars/
 
KCDW 300153Z 22004KT 10SM CLR 03/M14 A3014 RMK AO2 SLP214 T00331139
KMMU 300145Z 24007KT 7SM FEW200 03/M13 A3015 RMK LAST
KFWN 300153Z AUTO 25004KT 10SM CLR 01/M12 A3011 RMK AO2 SLP201 T00061117
KTEB 300151Z 21008KT 10SM CLR 04/M12 A3013 RMK AO2 SLP203 T00441122
KTEB 292324Z 3000/3024 21005KT P6SM SCT250 
     FM300900 21006KT P6SM OVC100 
     FM301100 22010KT P6SM SCT020 OVC050 
     FM301400 24012KT P6SM SCT020 OVC050 
     FM301800 26014G20KT P6SM BKN050 
     FM302200 28014G20KT P6SM BKN050
       
KEWR 300151Z 21008KT 10SM SCT250 04/M13 A3015 RMK AO2 SLP209 T00441128
KEWR 292324Z 3000/3106 23007KT P6SM SCT250 
     FM300100 21006KT P6SM SCT250 
     FM300900 21007KT P6SM OVC100 
     FM301100 21011KT P6SM SCT020 OVC050 
     FM301400 24014KT P6SM SCT020 OVC050 
     FM301800 26015G23KT P6SM BKN050 
     FM302200 28016G25KT P6SM BKN050 
     FM310100 29011KT P6SM FEW050
       
KDXR 300153Z 00000KT 10SM CLR M02/M09 A3012 RMK AO2 SLP202 T10171094 PWINO FZRANO
KHPN 300156Z 19005KT 10SM CLR 01/M07 A3011 RMK AO2 SLP206 T00061067
KHPN 292324Z 3000/3024 21004KT P6SM SCT250 
     FM300900 21005KT P6SM OVC100 
     FM301100 22006KT P6SM SCT020 OVC050 
     FM301400 23010KT P6SM SCT020 OVC050 
     FM301800 25013G19KT P6SM BKN050 
     FM302200 28013G19KT P6SM BKN050 AMD NOT SKED
       
KABE 300151Z 20008KT 10SM CLR 03/M12 A3013 RMK AO2 SLP205 T00331117
KABE 292332Z 3000/3024 22008KT P6SM SCT250 
     FM300300 20005KT P6SM BKN150 
     FM300800 21008KT P6SM -RASN FEW025 BKN040 
     FM301500 27012G20KT P6SM BKN040 
     FM302100 28015G25KT P6SM BKN100
       
KAVP 300154Z AUTO 23007KT 10SM CLR 03/M14 A3005 RMK AO2 SLP184 T00281144
KAVP 292339Z 3000/3024 21005KT P6SM BKN150 
     FM300700 22009KT P6SM OVC040 
     TEMPO 3007/3009 4SM -RASN OVC025 
     FM301100 22007G14KT P6SM BKN025 OVC035 
     FM301600 26012G22KT P6SM BKN035
       
KSWF 292245Z 27006KT 20SM SKC 06/M14 A3013
KSWF 292324Z 3000/3106 22004KT P6SM SCT250 
     FM300800 22004KT P6SM OVC100 
     FM301000 22008KT P6SM SCT020 OVC050 
     FM301300 24011KT P6SM SCT020 OVC050 
     FM301700 27014G22KT P6SM BKN050 
     FM310000 29010KT P6SM FEW050 AMD NOT SKED
       
KMSV 300215Z AUTO 21004KT 10SM CLR M01/M13 A3005 RMK AO1
KPOU 300153Z AUTO 00000KT 10SM CLR 00/M10 A3010 RMK AO2 SLP193 T00001100
KPOU 292321Z 3000/3024 VRB03KT P6SM FEW250 
     FM300800 20004KT P6SM OVC080 
     FM301000 22008KT P6SM VCSH SCT025 OVC040 
     FM301400 24010G15KT P6SM VCSH BKN045 
     FM301900 27014G23KT P6SM VCSH BKN060
       
KACY 300154Z 21007KT 10SM CLR 01/M09 A3021 RMK AO2 SLP229 T00111094
KACY 292332Z 3000/3024 24006KT P6SM SCT250 
     FM300400 19005KT P6SM BKN200 
     FM300900 22010KT P6SM -RA BKN050 
     FM301400 26012G20KT P6SM SCT030 BKN050 
     FM302100 29014G24KT P6SM SCT050
       
KGON 300156Z 22007KT 10SM CLR 01/M03 A3014 RMK AO2 SLP205 T00111033 $
KGON 292324Z 3000/3024 23006KT P6SM SCT250 
     FM300100 21004KT P6SM SCT250 
     FM301000 20005KT P6SM OVC100 
     FM301300 21009KT P6SM OVC050 
     FM301500 23014KT P6SM BKN020 OVC050 
     FM301900 24013G20KT P6SM BKN050